createdAt,value
2019-03-18T00:00:32.357Z,100059.00
2019-03-18T00:03:02.370Z,100068.00
2019-03-18T00:05:33.436Z,100074.00
2019-03-18T00:08:03.100Z,100076.00
2019-03-18T00:10:33.986Z,100080.00
2019-03-18T00:13:04.060Z,100063.00
2019-03-18T00:15:33.778Z,100076.00
2019-03-18T00:18:03.453Z,100083.00
2019-03-18T00:20:33.131Z,100080.00
2019-03-18T00:23:02.786Z,100092.00
2019-03-18T00:25:32.434Z,100098.00
2019-03-18T00:28:02.114Z,100083.00
2019-03-18T00:30:32.186Z,100086.00
2019-03-18T00:33:03.357Z,100099.00
2019-03-18T00:35:33.208Z,100115.00
2019-03-18T00:38:02.873Z,100112.00
2019-03-18T00:40:32.917Z,100106.00
2019-03-18T00:43:02.593Z,100113.00
2019-03-18T00:45:32.236Z,100110.00
2019-03-18T00:48:01.902Z,100118.00
2019-03-18T00:50:31.579Z,100129.00
2019-03-18T00:53:01.252Z,100124.00
2019-03-18T00:55:30.896Z,100122.00
2019-03-18T00:58:00.579Z,100132.00
2019-03-18T01:00:30.250Z,100140.00
2019-03-18T01:02:59.912Z,100151.00
2019-03-18T01:05:29.595Z,100144.00
2019-03-18T01:07:59.250Z,100153.00
2019-03-18T01:10:29.041Z,100151.00
2019-03-18T01:12:58.719Z,100149.00
2019-03-18T01:15:28.850Z,100156.00
2019-03-18T01:17:58.592Z,100164.00
2019-03-18T01:20:28.270Z,100165.00
2019-03-18T01:22:57.916Z,100174.00
2019-03-18T01:25:27.569Z,100176.00
2019-03-18T01:27:57.268Z,100177.00
2019-03-18T01:30:26.925Z,100186.00
2019-03-18T01:32:56.573Z,100181.00
2019-03-18T01:35:26.268Z,100188.00
2019-03-18T01:37:55.925Z,100190.00
2019-03-18T01:40:25.872Z,100184.00
2019-03-18T01:42:56.904Z,100186.00
2019-03-18T01:45:26.559Z,100183.00
2019-03-18T01:47:56.203Z,100183.00
2019-03-18T01:50:25.871Z,100181.00
2019-03-18T01:52:55.548Z,100174.00
2019-03-18T01:55:25.199Z,100183.00
2019-03-18T01:57:54.872Z,100182.00
2019-03-18T02:00:24.640Z,100190.00
2019-03-18T02:02:54.301Z,100182.00
2019-03-18T02:05:23.993Z,100184.00
2019-03-18T02:07:53.633Z,100191.00
2019-03-18T02:10:23.295Z,100203.00
2019-03-18T02:12:52.963Z,100193.00
2019-03-18T02:15:22.630Z,100202.00
2019-03-18T02:17:52.279Z,100198.00
2019-03-18T02:20:21.952Z,100196.00
2019-03-18T02:22:51.794Z,100202.00
2019-03-18T02:25:21.509Z,100203.00
2019-03-18T02:27:51.189Z,100200.00
2019-03-18T02:30:21.274Z,100213.00
2019-03-18T02:32:50.901Z,100201.00
2019-03-18T02:35:20.584Z,100219.00
2019-03-18T02:37:50.230Z,100204.00
2019-03-18T02:40:19.892Z,100204.00
2019-03-18T02:42:49.577Z,100204.00
2019-03-18T02:45:19.227Z,100200.00
2019-03-18T02:47:48.805Z,100205.00
2019-03-18T02:50:18.503Z,100206.00
2019-03-18T02:52:48.083Z,100207.00
2019-03-18T02:55:17.740Z,100222.00
2019-03-18T02:57:47.421Z,100220.00
2019-03-18T03:00:17.442Z,100229.00
2019-03-18T03:02:47.225Z,100226.00
2019-03-18T03:05:16.915Z,100231.00
2019-03-18T03:07:48.299Z,100234.00
2019-03-18T03:10:17.949Z,100244.00
2019-03-18T03:12:47.612Z,100251.00
2019-03-18T03:15:17.258Z,100240.00
2019-03-18T03:17:46.920Z,100236.00
2019-03-18T03:20:16.586Z,100248.00
2019-03-18T03:22:46.241Z,100247.00
2019-03-18T03:25:15.960Z,100256.00
2019-03-18T03:27:45.643Z,100254.00
2019-03-18T03:30:18.263Z,100254.00
2019-03-18T03:32:47.904Z,100253.00
2019-03-18T03:35:17.740Z,100246.00
2019-03-18T03:37:47.312Z,100250.00
2019-03-18T03:40:16.982Z,100253.00
2019-03-18T03:42:46.655Z,100257.00
2019-03-18T03:45:16.619Z,100261.00
2019-03-18T03:47:46.287Z,100267.00
2019-03-18T03:50:16.623Z,100260.00
2019-03-18T03:52:46.264Z,100266.00
2019-03-18T03:55:16.214Z,100278.00
2019-03-18T03:57:46.083Z,100278.00
2019-03-18T04:00:16.815Z,100280.00
2019-03-18T04:02:46.476Z,100290.00
2019-03-18T04:05:16.152Z,100280.00
2019-03-18T04:07:45.818Z,100286.00
2019-03-18T04:10:16.385Z,100288.00
2019-03-18T04:12:46.067Z,100294.00
2019-03-18T04:15:18.486Z,100300.00
2019-03-18T04:17:48.130Z,100296.00
2019-03-18T04:20:18.721Z,100304.00
2019-03-18T04:22:49.625Z,100307.00
2019-03-18T04:25:19.283Z,100307.00
2019-03-18T04:27:48.960Z,100299.00
2019-03-18T04:30:18.604Z,100309.00
2019-03-18T04:32:48.262Z,100308.00
2019-03-18T04:35:17.937Z,100311.00
2019-03-18T04:37:47.585Z,100316.00
2019-03-18T04:40:17.256Z,100318.00
2019-03-18T04:42:46.932Z,100319.00
2019-03-18T04:45:16.590Z,100321.00
2019-03-18T04:47:46.255Z,100324.00
2019-03-18T04:50:16.138Z,100326.00
2019-03-18T04:52:45.789Z,100330.00
2019-03-18T04:55:15.467Z,100325.00
2019-03-18T04:57:45.126Z,100326.00
2019-03-18T05:00:15.687Z,100338.00
2019-03-18T05:02:47.639Z,100342.00
2019-03-18T05:05:17.330Z,100347.00
2019-03-18T05:07:47.057Z,100354.00
2019-03-18T05:10:16.745Z,100358.00
2019-03-18T05:12:46.372Z,100360.00
2019-03-18T05:15:16.049Z,100358.00
2019-03-18T05:17:45.719Z,100372.00
2019-03-18T05:20:15.397Z,100375.00
2019-03-18T05:22:45.047Z,100379.00
2019-03-18T05:25:14.994Z,100376.00
2019-03-18T05:27:44.673Z,100386.00
2019-03-18T05:30:15.660Z,100374.00
2019-03-18T05:32:45.305Z,100377.00
2019-03-18T05:35:14.986Z,100362.00
2019-03-18T05:37:44.615Z,100368.00
2019-03-18T05:40:14.260Z,100379.00
2019-03-18T05:42:43.943Z,100371.00
2019-03-18T05:45:13.598Z,100382.00
2019-03-18T05:47:43.260Z,100379.00
2019-03-18T05:50:13.236Z,100374.00
2019-03-18T05:52:42.900Z,100379.00
2019-03-18T05:55:12.559Z,100380.00
2019-03-18T05:57:42.257Z,100379.00
2019-03-18T06:00:14.376Z,100386.00
2019-03-18T06:02:46.826Z,100394.00
2019-03-18T06:05:15.451Z,100388.00
2019-03-18T06:07:45.374Z,100399.00
2019-03-18T06:10:15.620Z,100398.00
2019-03-18T06:12:45.284Z,100405.00
2019-03-18T06:15:14.938Z,100411.00
2019-03-18T06:17:52.151Z,100419.00
2019-03-18T06:20:16.001Z,100421.00
2019-03-18T06:22:45.670Z,100418.00
2019-03-18T06:25:15.316Z,100421.00
2019-03-18T06:27:45.001Z,100429.00
2019-03-18T06:30:16.754Z,100424.00
2019-03-18T06:32:46.429Z,100425.00
2019-03-18T06:35:16.113Z,100422.00
2019-03-18T06:37:45.876Z,100424.00
2019-03-18T06:40:16.344Z,100430.00
2019-03-18T06:42:46.030Z,100433.00
2019-03-18T06:45:15.694Z,100441.00
2019-03-18T06:47:45.397Z,100448.00
2019-03-18T06:50:15.020Z,100441.00
2019-03-18T06:52:44.664Z,100443.00
2019-03-18T06:55:14.347Z,100442.00
2019-03-18T06:57:44.025Z,100436.00
2019-03-18T07:00:16.429Z,100441.00
2019-03-18T07:02:46.087Z,100438.00
2019-03-18T07:05:15.757Z,100433.00
2019-03-18T07:07:45.425Z,100434.00
2019-03-18T07:10:15.377Z,100426.00
2019-03-18T07:12:45.135Z,100437.00
2019-03-18T07:15:14.907Z,100434.00
2019-03-18T07:17:44.576Z,100444.00
2019-03-18T07:20:15.252Z,100444.00
2019-03-18T07:22:44.913Z,100444.00
2019-03-18T07:25:14.641Z,100442.00
2019-03-18T07:27:44.313Z,100449.00
2019-03-18T07:30:15.476Z,100446.00
2019-03-18T07:32:45.134Z,100445.00
2019-03-18T07:35:16.347Z,100452.00
2019-03-18T07:37:47.212Z,100466.00
2019-03-18T07:40:18.090Z,100475.00
2019-03-18T07:42:47.760Z,100468.00
2019-03-18T07:45:17.423Z,100463.00
2019-03-18T07:47:47.197Z,100475.00
2019-03-18T07:50:17.172Z,100471.00
2019-03-18T07:52:48.144Z,100472.00
2019-03-18T07:55:17.815Z,100477.00
2019-03-18T07:57:47.514Z,100470.00
2019-03-18T08:00:17.933Z,100469.00
2019-03-18T08:02:47.612Z,100476.00
2019-03-18T08:05:17.294Z,100476.00
2019-03-18T08:07:46.949Z,100479.00
2019-03-18T08:10:16.605Z,100430.00
2019-03-18T08:12:46.302Z,100482.00
2019-03-18T08:15:15.965Z,100478.00
2019-03-18T08:17:45.628Z,100490.00
2019-03-18T08:20:15.504Z,100495.00
2019-03-18T08:22:45.176Z,100492.00
2019-03-18T08:25:14.839Z,100500.00
2019-03-18T08:27:44.526Z,100496.00
2019-03-18T08:30:19.761Z,100494.00
2019-03-18T08:32:49.381Z,100494.00
2019-03-18T08:35:19.030Z,100495.00
2019-03-18T08:37:48.780Z,100506.00
2019-03-18T08:40:18.463Z,100508.00
2019-03-18T08:42:48.122Z,100508.00
2019-03-18T08:45:17.905Z,100517.00
2019-03-18T08:47:47.523Z,100521.00
2019-03-18T08:50:17.179Z,100526.00
2019-03-18T08:52:46.843Z,100521.00
2019-03-18T08:55:16.533Z,100537.00
2019-03-18T08:57:46.204Z,100528.00
2019-03-18T09:00:17.948Z,100534.00
2019-03-18T09:02:47.643Z,100525.00
2019-03-18T09:05:17.328Z,100543.00
2019-03-18T09:07:46.998Z,100544.00
2019-03-18T09:10:17.793Z,100540.00
2019-03-18T09:12:47.469Z,100547.00
2019-03-18T09:15:18.183Z,100557.00
2019-03-18T09:17:47.852Z,100558.00
2019-03-18T09:20:21.946Z,100547.00
2019-03-18T09:22:51.455Z,100565.00
2019-03-18T09:25:21.110Z,100562.00
2019-03-18T09:27:50.703Z,100574.00
2019-03-18T09:30:21.908Z,100563.00
2019-03-18T09:32:51.804Z,100567.00
2019-03-18T09:35:21.464Z,100577.00
2019-03-18T09:37:51.138Z,100577.00
2019-03-18T09:40:20.808Z,100578.00
2019-03-18T09:42:50.463Z,100579.00
2019-03-18T09:45:20.278Z,100582.00
2019-03-18T09:47:49.943Z,100606.00
2019-03-18T09:50:19.695Z,100574.00
2019-03-18T09:52:49.387Z,100595.00
2019-03-18T09:55:19.075Z,100588.00
2019-03-18T09:57:48.727Z,100577.00
2019-03-18T10:00:22.025Z,100589.00
2019-03-18T10:02:51.912Z,100592.00
2019-03-18T10:05:21.572Z,100586.00
2019-03-18T10:07:51.278Z,100600.00
2019-03-18T10:10:20.940Z,100600.00
2019-03-18T10:12:50.593Z,100596.00
2019-03-18T10:15:21.802Z,100599.00
2019-03-18T10:17:51.465Z,100594.00
2019-03-18T10:20:21.301Z,100599.00
2019-03-18T10:22:51.093Z,100618.00
2019-03-18T10:25:20.776Z,100604.00
2019-03-18T10:27:51.859Z,100602.00
2019-03-18T10:30:21.553Z,100611.00
2019-03-18T10:32:51.223Z,100618.00
2019-03-18T10:35:20.886Z,100617.00
2019-03-18T10:37:50.642Z,100619.00
2019-03-18T10:40:20.460Z,100622.00
2019-03-18T10:42:50.130Z,100621.00
2019-03-18T10:45:19.819Z,100624.00
2019-03-18T10:47:49.547Z,100632.00
2019-03-18T10:50:20.973Z,100636.00
2019-03-18T10:52:50.698Z,100628.00
2019-03-18T10:55:20.348Z,100623.00
2019-03-18T10:57:50.036Z,100626.00
2019-03-18T11:00:20.995Z,100626.00
2019-03-18T11:02:50.692Z,100633.00
2019-03-18T11:05:20.358Z,100627.00
2019-03-18T11:07:51.787Z,100633.00
2019-03-18T11:10:21.533Z,100624.00
2019-03-18T11:12:51.221Z,100628.00
2019-03-18T11:15:22.881Z,100619.00
2019-03-18T11:17:52.527Z,100619.00
2019-03-18T11:20:22.304Z,100634.00
2019-03-18T11:22:52.022Z,100625.00
2019-03-18T11:25:21.684Z,100595.00
2019-03-18T11:27:51.386Z,100628.00
2019-03-18T11:30:21.640Z,100621.00
2019-03-18T11:32:52.760Z,100616.00
2019-03-18T11:35:22.476Z,100613.00
2019-03-18T11:37:52.156Z,100570.00
2019-03-18T11:40:22.727Z,100622.00
2019-03-18T11:42:52.407Z,100620.00
2019-03-18T11:45:22.064Z,100626.00
2019-03-18T11:47:51.547Z,100619.00
2019-03-18T11:50:21.949Z,100625.00
2019-03-18T11:52:51.694Z,100625.00
2019-03-18T11:55:27.467Z,100624.00
2019-03-18T11:57:57.252Z,100626.00
2019-03-18T12:00:27.721Z,100627.00
2019-03-18T12:02:57.486Z,100630.00
2019-03-18T12:05:30.361Z,100634.00
2019-03-18T12:08:00.035Z,100639.00
2019-03-18T12:10:29.739Z,100640.00
2019-03-18T12:12:59.402Z,100634.00
2019-03-18T12:15:29.373Z,100630.00
2019-03-18T12:18:00.542Z,100637.00
2019-03-18T12:20:32.990Z,100643.00
2019-03-18T12:23:01.612Z,100636.00
2019-03-18T12:25:33.731Z,100631.00
2019-03-18T12:28:05.015Z,100623.00
2019-03-18T12:30:34.062Z,100641.00
2019-03-18T12:33:04.233Z,100634.00
2019-03-18T12:35:33.903Z,100639.00
2019-03-18T12:38:03.683Z,100632.00
2019-03-18T12:40:33.372Z,100624.00
2019-03-18T12:43:03.198Z,100631.00
2019-03-18T12:45:32.863Z,100620.00
2019-03-18T12:48:02.570Z,100620.00
2019-03-18T12:50:49.228Z,100630.00
2019-03-18T12:53:03.622Z,100624.00
2019-03-18T12:55:33.301Z,100616.00
2019-03-18T12:58:03.004Z,100615.00
2019-03-18T13:00:34.969Z,100621.00
2019-03-18T13:03:05.024Z,100631.00
2019-03-18T13:05:34.685Z,100629.00
2019-03-18T13:08:04.670Z,100627.00
2019-03-18T13:10:34.342Z,100633.00
2019-03-18T13:13:04.097Z,100634.00
2019-03-18T13:15:33.776Z,100628.00
2019-03-18T13:18:03.474Z,100643.00
2019-03-18T13:20:33.130Z,100635.00
2019-03-18T13:23:02.804Z,100633.00
2019-03-18T13:25:32.503Z,100632.00
2019-03-18T13:28:02.287Z,100632.00
2019-03-18T13:30:31.934Z,100633.00
2019-03-18T13:33:01.686Z,100630.00
2019-03-18T13:35:31.275Z,100624.00
2019-03-18T13:38:00.936Z,100630.00
2019-03-18T13:40:30.676Z,100625.00
2019-03-18T13:43:00.546Z,100629.00
2019-03-18T13:45:30.210Z,100627.00
2019-03-18T13:47:59.893Z,100628.00
2019-03-18T13:50:29.543Z,100628.00
2019-03-18T13:52:59.203Z,100614.00
2019-03-18T13:55:28.888Z,100611.00
2019-03-18T13:57:58.587Z,100621.00
2019-03-18T14:00:30.997Z,100618.00
2019-03-18T14:02:59.972Z,100618.00
2019-03-18T14:05:29.648Z,100620.00
2019-03-18T14:08:01.102Z,100614.00
2019-03-18T14:10:30.819Z,100621.00
2019-03-18T14:13:00.482Z,100612.00
2019-03-18T14:15:30.156Z,100608.00
2019-03-18T14:17:59.840Z,100616.00
2019-03-18T14:20:32.038Z,100616.00
2019-03-18T14:23:01.625Z,100616.00
2019-03-18T14:25:31.318Z,100621.00
2019-03-18T14:28:01.185Z,100620.00
2019-03-18T14:30:30.876Z,100617.00
2019-03-18T14:33:00.553Z,100615.00
2019-03-18T14:35:30.216Z,100617.00
2019-03-18T14:37:59.879Z,100619.00
2019-03-18T14:40:29.580Z,100613.00
2019-03-18T14:42:59.732Z,100623.00
2019-03-18T14:45:29.400Z,100621.00
2019-03-18T14:47:59.203Z,100623.00
2019-03-18T14:50:28.882Z,100623.00
2019-03-18T14:52:58.739Z,100629.00
2019-03-18T14:55:28.447Z,100631.00
2019-03-18T14:57:59.992Z,100626.00
2019-03-18T15:00:30.661Z,100631.00
2019-03-18T15:03:00.347Z,100632.00
2019-03-18T15:05:30.017Z,100638.00
2019-03-18T15:07:59.670Z,100654.00
2019-03-18T15:10:32.672Z,100650.00
2019-03-18T15:13:02.320Z,100652.00
2019-03-18T15:15:31.989Z,100654.00
2019-03-18T15:18:03.198Z,100647.00
2019-03-18T15:20:34.456Z,100650.00
2019-03-18T15:23:04.116Z,100653.00
2019-03-18T15:25:37.363Z,100650.00
2019-03-18T15:28:07.011Z,100653.00
2019-03-18T15:30:36.699Z,100659.00
2019-03-18T15:33:06.412Z,100655.00
2019-03-18T15:35:36.067Z,100657.00
2019-03-18T15:38:05.989Z,100664.00
2019-03-18T15:40:35.743Z,100660.00
2019-03-18T15:43:08.783Z,100657.00
2019-03-18T15:45:38.673Z,100669.00
2019-03-18T15:48:08.369Z,100674.00
2019-03-18T15:50:38.023Z,100664.00
2019-03-18T15:53:07.702Z,100666.00
2019-03-18T15:55:37.381Z,100670.00
2019-03-18T15:58:07.050Z,100672.00
2019-03-18T16:00:36.715Z,100673.00
2019-03-18T16:03:06.411Z,100666.00
2019-03-18T16:05:36.069Z,100662.00
2019-03-18T16:08:05.805Z,100671.00
2019-03-18T16:10:35.495Z,100674.00
2019-03-18T16:13:05.167Z,100676.00
2019-03-18T16:15:34.897Z,100680.00
2019-03-18T16:18:04.585Z,100687.00
2019-03-18T16:20:34.240Z,100683.00
2019-03-18T16:23:03.917Z,100684.00
2019-03-18T16:25:33.596Z,100690.00
2019-03-18T16:28:03.330Z,100686.00
2019-03-18T16:30:33.004Z,100681.00
2019-03-18T16:33:02.785Z,100685.00
2019-03-18T16:35:32.461Z,100679.00
2019-03-18T16:38:02.133Z,100678.00
2019-03-18T16:40:31.814Z,100686.00
2019-03-18T16:43:01.499Z,100688.00
2019-03-18T16:45:31.220Z,100692.00
2019-03-18T16:48:01.030Z,100697.00
2019-03-18T16:50:32.434Z,100673.00
2019-03-18T16:53:02.075Z,100670.00
2019-03-18T16:55:31.754Z,100675.00
2019-03-18T16:58:01.425Z,100666.00
2019-03-18T17:00:31.090Z,100679.00
2019-03-18T17:03:00.858Z,100682.00
2019-03-18T17:05:30.514Z,100693.00
2019-03-18T17:08:00.175Z,100704.00
2019-03-18T17:10:29.847Z,100717.00
2019-03-18T17:12:59.564Z,100709.00
2019-03-18T17:15:29.163Z,100712.00
2019-03-18T17:17:58.928Z,100706.00
2019-03-18T17:20:28.750Z,100711.00
2019-03-18T17:22:58.439Z,100711.00
2019-03-18T17:25:33.354Z,100719.00
2019-03-18T17:28:03.024Z,100706.00
2019-03-18T17:30:32.700Z,100713.00
2019-03-18T17:33:02.457Z,100714.00
2019-03-18T17:35:32.138Z,100668.00
2019-03-18T17:38:01.812Z,100707.00
2019-03-18T17:40:31.499Z,100713.00
2019-03-18T17:43:01.180Z,100728.00
2019-03-18T17:45:30.905Z,100729.00
2019-03-18T17:48:00.576Z,100725.00
2019-03-18T17:50:31.456Z,100735.00
2019-03-18T17:53:03.824Z,100733.00
2019-03-18T17:55:32.860Z,100733.00
2019-03-18T17:58:02.549Z,100739.00
2019-03-18T18:00:39.991Z,100741.00
2019-03-18T18:03:09.656Z,100744.00
2019-03-18T18:05:39.427Z,100760.00
2019-03-18T18:08:09.187Z,100766.00
2019-03-18T18:10:38.868Z,100759.00
2019-03-18T18:13:08.520Z,100702.00
2019-03-18T18:15:38.234Z,100767.00
2019-03-18T18:18:07.912Z,100765.00
2019-03-18T18:20:38.022Z,100760.00
2019-03-18T18:23:14.144Z,100765.00
2019-03-18T18:25:39.242Z,100762.00
2019-03-18T18:28:08.996Z,100762.00
2019-03-18T18:30:38.708Z,100765.00
2019-03-18T18:33:08.471Z,100769.00
2019-03-18T18:35:38.095Z,100775.00
2019-03-18T18:38:07.799Z,100782.00
2019-03-18T18:40:37.469Z,100776.00
2019-03-18T18:43:07.139Z,100788.00
2019-03-18T18:45:36.824Z,100788.00
2019-03-18T18:48:06.509Z,100781.00
2019-03-18T18:50:36.196Z,100791.00
2019-03-18T18:53:05.940Z,100790.00
2019-03-18T18:55:35.609Z,100788.00
2019-03-18T18:58:05.283Z,100796.00
2019-03-18T19:00:34.977Z,100798.00
2019-03-18T19:03:04.741Z,100796.00
2019-03-18T19:05:34.393Z,100801.00
2019-03-18T19:08:04.154Z,100797.00
2019-03-18T19:10:33.836Z,100813.00
2019-03-18T19:13:03.555Z,100813.00
2019-03-18T19:15:37.449Z,100816.00
2019-03-18T19:18:37.388Z,100819.00
2019-03-18T19:20:57.805Z,100820.00
2019-03-18T19:23:37.159Z,100825.00
2019-03-18T19:25:58.898Z,100819.00
2019-03-18T19:28:28.573Z,100826.00
2019-03-18T19:30:58.377Z,100819.00
2019-03-18T19:33:28.051Z,100826.00
2019-03-18T19:35:57.736Z,100826.00
2019-03-18T19:38:27.407Z,100835.00
2019-03-18T19:40:57.083Z,100836.00
2019-03-18T19:43:26.790Z,100829.00
2019-03-18T19:45:56.526Z,100844.00
2019-03-18T19:48:26.210Z,100838.00
2019-03-18T19:50:56.004Z,100833.00
2019-03-18T19:53:27.143Z,100834.00
2019-03-18T19:55:56.807Z,100835.00
2019-03-18T19:58:26.502Z,100832.00
2019-03-18T20:00:58.609Z,100844.00
2019-03-18T20:03:28.289Z,100832.00
2019-03-18T20:05:57.975Z,100838.00
2019-03-18T20:08:27.579Z,100836.00
2019-03-18T20:10:57.244Z,100845.00
2019-03-18T20:13:26.985Z,100847.00
2019-03-18T20:15:56.649Z,100849.00
2019-03-18T20:18:26.387Z,100847.00
2019-03-18T20:20:57.047Z,100851.00
2019-03-18T20:23:29.384Z,100856.00
2019-03-18T20:25:59.121Z,100852.00
2019-03-18T20:28:28.848Z,100859.00
2019-03-18T20:30:58.586Z,100853.00
2019-03-18T20:33:28.263Z,100860.00
2019-03-18T20:35:57.949Z,100863.00
2019-03-18T20:38:27.679Z,100871.00
2019-03-18T20:40:57.358Z,100866.00
2019-03-18T20:43:27.049Z,100864.00
2019-03-18T20:45:56.729Z,100855.00
2019-03-18T20:48:26.415Z,100867.00
2019-03-18T20:50:56.765Z,100885.00
2019-03-18T20:53:26.761Z,100881.00
2019-03-18T20:55:56.513Z,100876.00
2019-03-18T20:58:26.209Z,100885.00
2019-03-18T21:00:55.880Z,100884.00
2019-03-18T21:03:25.557Z,100886.00
2019-03-18T21:05:55.273Z,100882.00
2019-03-18T21:08:25.182Z,100889.00
2019-03-18T21:10:54.894Z,100898.00
2019-03-18T21:13:24.599Z,100893.00
2019-03-18T21:15:54.254Z,100900.00
2019-03-18T21:18:24.122Z,100896.00
2019-03-18T21:20:53.809Z,100897.00
2019-03-18T21:23:23.651Z,100896.00
2019-03-18T21:25:53.351Z,100881.00
2019-03-18T21:28:23.034Z,100898.00
2019-03-18T21:30:52.696Z,100889.00
2019-03-18T21:33:22.353Z,100884.00
2019-03-18T21:35:54.776Z,100889.00
2019-03-18T21:38:23.429Z,100903.00
2019-03-18T21:40:53.101Z,100900.00
2019-03-18T21:43:22.795Z,100898.00
2019-03-18T21:45:52.537Z,100901.00
2019-03-18T21:48:24.822Z,100906.00
2019-03-18T21:50:54.508Z,100902.00
2019-03-18T21:53:24.085Z,100908.00
2019-03-18T21:55:53.772Z,100901.00
2019-03-18T21:58:23.474Z,100889.00
2019-03-18T22:00:53.940Z,100910.00
2019-03-18T22:03:23.553Z,100900.00
2019-03-18T22:05:53.254Z,100905.00
2019-03-18T22:08:22.916Z,100894.00
2019-03-18T22:10:52.590Z,100905.00
2019-03-18T22:13:23.725Z,100903.00
2019-03-18T22:15:53.384Z,100908.00
2019-03-18T22:18:23.085Z,100910.00
2019-03-18T22:20:52.777Z,100917.00
2019-03-18T22:23:22.439Z,100917.00
2019-03-18T22:25:52.109Z,100914.00
2019-03-18T22:28:21.815Z,100925.00
2019-03-18T22:30:55.167Z,100911.00
2019-03-18T22:33:27.330Z,100916.00
2019-03-18T22:35:56.999Z,100919.00
2019-03-18T22:38:26.678Z,100921.00
2019-03-18T22:40:56.415Z,100908.00
2019-03-18T22:43:26.096Z,100918.00
2019-03-18T22:45:55.760Z,100917.00
2019-03-18T22:48:25.497Z,100912.00
2019-03-18T22:50:55.210Z,100918.00
2019-03-18T22:53:24.887Z,100914.00
2019-03-18T22:55:54.573Z,100913.00
2019-03-18T22:58:24.307Z,100917.00
2019-03-18T23:00:56.389Z,100919.00
2019-03-18T23:03:26.157Z,100917.00
2019-03-18T23:05:55.855Z,100912.00
2019-03-18T23:08:25.517Z,100921.00
2019-03-18T23:10:55.178Z,100921.00
2019-03-18T23:13:24.852Z,100924.00
2019-03-18T23:15:54.515Z,100927.00
2019-03-18T23:18:24.189Z,100931.00
2019-03-18T23:20:55.349Z,100936.00
2019-03-18T23:23:25.065Z,100934.00
2019-03-18T23:25:54.740Z,100924.00
2019-03-18T23:28:24.435Z,100922.00
2019-03-18T23:30:54.108Z,100928.00
2019-03-18T23:33:23.777Z,100939.00
2019-03-18T23:35:56.414Z,100929.00
2019-03-18T23:38:26.075Z,100934.00
2019-03-18T23:40:56.063Z,100935.00
2019-03-18T23:43:25.762Z,100940.00
2019-03-18T23:45:55.448Z,100942.00
2019-03-18T23:48:25.106Z,100938.00
2019-03-18T23:50:54.782Z,100936.00
2019-03-18T23:53:24.711Z,100938.00
2019-03-18T23:55:54.458Z,100938.00
2019-03-18T23:58:24.375Z,100951.00
